Plainfield, WI (54966)

9:16 AM CDT on March 26, 2017 (GMT -0500)
Hancock Village | | Change Station

Elev 1093 ft 44.13 °N, 89.52 °W | Updated 1 minute ago

Overcast
Overcast
34.7 °F
Feels Like 29 °F
N
6.3
Wind Variable Wind from ENE

Today
High -- | Low -- °F
--% Chance of Precip.
Yesterday
High -- | Low -- °F
Precip. -- in
Pressure 30.01 in
Visibility 1.8 miles
Clouds Overcast 300 ft
Windchill 29 °F
Dew Point 34 °F
Humidity 97%
Rainfall 0.07 in
Snow Depth Not available.
6:49 AM 7:18 PM
Waning Crescent, 3% visible
METAR KY50 261356Z AUTO 06008KT 1 3/4SM BR OVC003 02/02 A2992 RMK AO2 VIS 1 1/2V2 1/2 SLP161 T00170017 TSNO
Pressure 30.01 in
Visibility 1.8 miles
Clouds Overcast 300 ft
Windchill 29 °F
Dew Point 34 °F
Humidity 97%
Rainfall 0.07 in
Snow Depth Not available.
6:49 AM 7:18 PM
Waning Crescent, 3% visible
METAR KY50 261356Z AUTO 06008KT 1 3/4SM BR OVC003 02/02 A2992 RMK AO2 VIS 1 1/2V2 1/2 SLP161 T00170017 TSNO

Get Severe Weather Alerts

Thanks for signing up!

Be on the lookout for a verification email in your inbox.

You'll start receiving the daily forecast at 8 AM.

×

10-Day Weather Forecast

Almanac

Astronomy

Mar. 26, 2017 Rise Set
Actual Time
Civil Twilight
Nautical Twilight
Astronomical Twilight
Moon
Length of Visible Light
Length of Day
Tomorrow will be .
, % of the Moon is Illuminated

Today's Extremes

State Highs State Lows

Community

WunderPhotos

Upload Photos

1,962,540 photos uploaded!

WunderBlog® & News

Nearby

Air Quality

  Air Quality AQ Index Pollutant
Not available.

Snow Depth

Station Depth Elevation

Earthquake Activity

City Distance Mag. Time & Date
Minimum magnitude displayed is 2.5.

Earthquake Activity

City Distance Mag. Time & Date
Minimum magnitude displayed is 2.5.

Coastal Water Temperatures

Place Temperature

Stations

Nearby Weather Stations

Station Location Temp. Windchill Dew Point Humidity Wind Precip. Elev Updated Type
                   

Watches & Warnings

There are currently no watches in effect.